메인 페이지
METAR-TAF:

METAR-TAF

공항 :

하트퍼드, 코네티컷, 미국

위도: 41-44-06N, 경도: 072-39-06W, 고도: 5m

현재 날씨관측

예보는 53분 전, 17:53시(UTC)에 발표되었습니다.
북서12kt
온도 8°C
습도 61%
기압 1012 hPa
시정: 16.1km
고도 2600ft 상공 구름 조금
고도 5500ft 상공 구름 많음

METAR: KHFD 231753Z 32012KT 10SM FEW026 BKN055 08/01 A2987 RMK AO2 SLP114 60042 T00780011 10094 20072 50005

시각: 13:46 (18:46 UTC)


TAF: 누락

4,000개 이상의 공항 관측 자료 및 예보 (METAR 및 TAF 보고).

지도상에서 검색 가능한 기상관측소가 노란 점과 빨간 점으로 표시되어 있습니다.

기상관측소 명을 보려면 표시 위로 마우스를 이동하세요.

날씨 관측과 예보를 보려면 클릭하세요.

지도 변경 : 확대하려면 엑스 표시가 있는 녹색 버튼, 축소하려면 빼기 표시가 있는 녹색 버튼, 다음 페이지의 지도를 보려면 녹색 화살표를 클릭하세요.


METAR-TAF: